sensor_id;sensor_type;location;lat;lon;timestamp;pressure;altitude;pressure_sealevel;temperature;humidity
54924;BME280;40825;52.270;20.984;2023-07-29T00:00:36;99789.39;;;17.45;100.00
54924;BME280;40825;52.270;20.984;2023-07-29T00:03:29;99794.58;;;17.45;100.00
54924;BME280;40825;52.270;20.984;2023-07-29T00:06:02;99798.74;;;17.46;100.00
54924;BME280;40825;52.270;20.984;2023-07-29T00:09:32;99804.31;;;17.47;100.00
54924;BME280;40825;52.270;20.984;2023-07-29T00:12:51;99799.42;;;17.49;100.00
54924;BME280;40825;52.270;20.984;2023-07-29T00:15:53;99802.14;;;17.51;100.00
54924;BME280;40825;52.270;20.984;2023-07-29T00:22:02;99808.20;;;17.48;100.00
54924;BME280;40825;52.270;20.984;2023-07-29T00:25:15;99813.46;;;17.44;100.00
54924;BME280;40825;52.270;20.984;2023-07-29T00:28:12;99810.46;;;17.42;100.00
54924;BME280;40825;52.270;20.984;2023-07-29T00:30:59;99813.81;;;17.38;100.00
54924;BME280;40825;52.270;20.984;2023-07-29T00:33:28;99815.02;;;17.35;100.00
54924;BME280;40825;52.270;20.984;2023-07-29T00:35:59;99818.66;;;17.33;100.00
54924;BME280;40825;52.270;20.984;2023-07-29T00:49:00;99823.48;;;17.22;100.00
54924;BME280;40825;52.270;20.984;2023-07-29T00:51:59;99821.14;;;17.16;100.00
54924;BME280;40825;52.270;20.984;2023-07-29T00:54:40;99822.09;;;17.14;100.00
54924;BME280;40825;52.270;20.984;2023-07-29T00:57:50;99821.23;;;17.11;100.00
54924;BME280;40825;52.270;20.984;2023-07-29T01:00:51;99821.86;;;17.09;100.00
54924;BME280;40825;52.270;20.984;2023-07-29T01:03:56;99826.34;;;17.05;100.00
54924;BME280;40825;52.270;20.984;2023-07-29T01:07:04;99830.43;;;17.02;100.00
54924;BME280;40825;52.270;20.984;2023-07-29T01:14:00;99829.20;;;16.92;100.00
54924;BME280;40825;52.270;20.984;2023-07-29T01:17:39;99830.39;;;16.89;100.00
54924;BME280;40825;52.270;20.984;2023-07-29T01:27:10;99836.98;;;16.84;100.00
54924;BME280;40825;52.270;20.984;2023-07-29T01:29:51;99840.05;;;16.82;100.00
54924;BME280;40825;52.270;20.984;2023-07-29T01:44:01;99849.28;;;16.68;100.00
54924;BME280;40825;52.270;20.984;2023-07-29T01:47:08;99851.67;;;16.66;100.00
54924;BME280;40825;52.270;20.984;2023-07-29T01:50:38;99849.02;;;16.63;100.00
54924;BME280;40825;52.270;20.984;2023-07-29T01:53:12;99850.17;;;16.60;100.00
54924;BME280;40825;52.270;20.984;2023-07-29T02:13:41;99865.02;;;16.42;100.00
54924;BME280;40825;52.270;20.984;2023-07-29T02:16:27;99868.65;;;16.40;100.00
54924;BME280;40825;52.270;20.984;2023-07-29T02:19:35;99870.70;;;16.33;100.00
54924;BME280;40825;52.270;20.984;2023-07-29T02:22:35;99867.30;;;16.28;100.00
54924;BME280;40825;52.270;20.984;2023-07-29T02:25:03;99871.39;;;16.25;100.00
54924;BME280;40825;52.270;20.984;2023-07-29T02:30:35;99875.38;;;16.16;100.00
54924;BME280;40825;52.270;20.984;2023-07-29T02:33:12;99874.64;;;16.11;100.00
54924;BME280;40825;52.270;20.984;2023-07-29T02:43:39;99871.91;;;15.97;100.00
54924;BME280;40825;52.270;20.984;2023-07-29T02:46:15;99870.38;;;15.95;100.00
54924;BME280;40825;52.270;20.984;2023-07-29T02:52:40;99874.10;;;15.95;100.00
54924;BME280;40825;52.270;20.984;2023-07-29T02:58:54;99879.02;;;15.93;100.00
54924;BME280;40825;52.270;20.984;2023-07-29T03:04:38;99888.08;;;15.95;100.00
54924;BME280;40825;52.270;20.984;2023-07-29T03:08:05;99891.95;;;15.95;100.00
54924;BME280;40825;52.270;20.984;2023-07-29T03:24:13;99901.47;;;15.94;100.00
54924;BME280;40825;52.270;20.984;2023-07-29T03:27:03;99902.02;;;15.94;100.00
54924;BME280;40825;52.270;20.984;2023-07-29T03:48:03;99919.02;;;15.91;100.00
54924;BME280;40825;52.270;20.984;2023-07-29T03:51:11;99922.42;;;15.91;100.00
54924;BME280;40825;52.270;20.984;2023-07-29T03:53:45;99924.52;;;15.94;100.00
54924;BME280;40825;52.270;20.984;2023-07-29T03:56:32;99922.81;;;15.96;100.00
54924;BME280;40825;52.270;20.984;2023-07-29T03:59:36;99923.05;;;15.97;100.00
54924;BME280;40825;52.270;20.984;2023-07-29T04:09:20;99925.39;;;16.12;100.00
54924;BME280;40825;52.270;20.984;2023-07-29T04:15:10;99929.35;;;16.27;100.00
54924;BME280;40825;52.270;20.984;2023-07-29T04:17:36;99927.69;;;16.34;100.00
54924;BME280;40825;52.270;20.984;2023-07-29T04:20:02;99930.02;;;16.40;100.00
54924;BME280;40825;52.270;20.984;2023-07-29T04:25:46;99937.98;;;16.53;100.00
54924;BME280;40825;52.270;20.984;2023-07-29T04:28:41;99945.52;;;16.64;100.00
54924;BME280;40825;52.270;20.984;2023-07-29T04:31:32;99949.09;;;16.73;100.00
54924;BME280;40825;52.270;20.984;2023-07-29T04:35:00;99956.02;;;16.79;100.00
54924;BME280;40825;52.270;20.984;2023-07-29T04:37:33;99960.71;;;16.89;100.00
54924;BME280;40825;52.270;20.984;2023-07-29T04:43:00;99963.84;;;17.07;100.00
54924;BME280;40825;52.270;20.984;2023-07-29T04:46:20;99965.15;;;17.18;100.00
54924;BME280;40825;52.270;20.984;2023-07-29T04:49:06;99971.50;;;17.39;100.00
54924;BME280;40825;52.270;20.984;2023-07-29T04:52:10;99976.27;;;17.59;100.00
54924;BME280;40825;52.270;20.984;2023-07-29T04:55:21;99976.06;;;17.84;100.00
54924;BME280;40825;52.270;20.984;2023-07-29T04:58:01;99976.21;;;18.20;100.00
54924;BME280;40825;52.270;20.984;2023-07-29T05:04:00;99985.79;;;18.16;100.00
54924;BME280;40825;52.270;20.984;2023-07-29T05:14:21;99999.81;;;17.91;100.00
54924;BME280;40825;52.270;20.984;2023-07-29T05:21:07;99996.79;;;17.87;99.90
54924;BME280;40825;52.270;20.984;2023-07-29T05:24:07;99997.20;;;17.85;98.87
54924;BME280;40825;52.270;20.984;2023-07-29T05:34:37;99996.51;;;18.28;99.74
54924;BME280;40825;52.270;20.984;2023-07-29T05:47:46;99992.20;;;18.58;97.64
54924;BME280;40825;52.270;20.984;2023-07-29T05:50:58;99995.95;;;18.68;95.06
54924;BME280;40825;52.270;20.984;2023-07-29T05:54:13;99996.39;;;18.72;94.03
54924;BME280;40825;52.270;20.984;2023-07-29T05:56:48;99999.44;;;18.81;94.90
54924;BME280;40825;52.270;20.984;2023-07-29T05:59:44;99998.55;;;19.07;96.59
54924;BME280;40825;52.270;20.984;2023-07-29T06:02:52;100003.92;;;19.29;94.43
54924;BME280;40825;52.270;20.984;2023-07-29T06:05:41;100009.08;;;19.31;94.63
54924;BME280;40825;52.270;20.984;2023-07-29T06:08:19;100013.02;;;19.52;95.31
54924;BME280;40825;52.270;20.984;2023-07-29T06:10:51;100016.82;;;19.71;92.71
54924;BME280;40825;52.270;20.984;2023-07-29T06:13:17;100015.27;;;19.81;93.54
54924;BME280;40825;52.270;20.984;2023-07-29T06:16:09;100020.33;;;19.94;94.97
54924;BME280;40825;52.270;20.984;2023-07-29T06:18:34;100026.04;;;20.08;92.75
54924;BME280;40825;52.270;20.984;2023-07-29T06:21:03;100029.71;;;20.17;89.72
54924;BME280;40825;52.270;20.984;2023-07-29T06:26:20;100033.66;;;20.46;89.84
54924;BME280;40825;52.270;20.984;2023-07-29T06:28:51;100035.02;;;20.74;87.23
54924;BME280;40825;52.270;20.984;2023-07-29T06:31:20;100039.64;;;20.90;89.10
54924;BME280;40825;52.270;20.984;2023-07-29T06:33:48;100039.29;;;21.21;90.18
54924;BME280;40825;52.270;20.984;2023-07-29T06:36:19;100043.56;;;21.59;89.50
54924;BME280;40825;52.270;20.984;2023-07-29T06:38:48;100046.73;;;21.88;89.17
54924;BME280;40825;52.270;20.984;2023-07-29T06:41:34;100052.77;;;21.92;87.63
54924;BME280;40825;52.270;20.984;2023-07-29T06:44:04;100060.23;;;21.57;84.15
54924;BME280;40825;52.270;20.984;2023-07-29T06:46:29;100060.30;;;21.21;84.27
54924;BME280;40825;52.270;20.984;2023-07-29T06:48:55;100055.55;;;20.93;85.19
54924;BME280;40825;52.270;20.984;2023-07-29T06:51:26;100056.19;;;20.70;85.72
54924;BME280;40825;52.270;20.984;2023-07-29T06:53:52;100055.87;;;20.50;86.46
54924;BME280;40825;52.270;20.984;2023-07-29T06:56:18;100051.10;;;20.39;86.99
54924;BME280;40825;52.270;20.984;2023-07-29T06:58:44;100054.02;;;20.50;86.99
54924;BME280;40825;52.270;20.984;2023-07-29T07:01:09;100050.13;;;20.73;87.48
54924;BME280;40825;52.270;20.984;2023-07-29T07:03:35;100051.29;;;21.03;87.22
54924;BME280;40825;52.270;20.984;2023-07-29T07:06:03;100050.42;;;21.31;85.93
54924;BME280;40825;52.270;20.984;2023-07-29T07:08:43;100050.42;;;21.42;83.44
54924;BME280;40825;52.270;20.984;2023-07-29T07:11:29;100053.56;;;21.62;84.59
54924;BME280;40825;52.270;20.984;2023-07-29T07:13:55;100051.98;;;21.62;85.01
54924;BME280;40825;52.270;20.984;2023-07-29T07:16:20;100051.77;;;21.67;83.58
54924;BME280;40825;52.270;20.984;2023-07-29T07:18:46;100048.44;;;21.84;84.26
54924;BME280;40825;52.270;20.984;2023-07-29T07:21:12;100045.95;;;22.14;83.29
54924;BME280;40825;52.270;20.984;2023-07-29T07:23:41;100040.38;;;22.24;81.59
54924;BME280;40825;52.270;20.984;2023-07-29T07:26:10;100041.12;;;22.26;80.42
54924;BME280;40825;52.270;20.984;2023-07-29T07:32:09;100043.90;;;23.05;80.44
54924;BME280;40825;52.270;20.984;2023-07-29T07:34:38;100046.65;;;23.61;79.90
54924;BME280;40825;52.270;20.984;2023-07-29T07:37:07;100044.69;;;23.99;77.65
54924;BME280;40825;52.270;20.984;2023-07-29T07:39:32;100039.41;;;24.19;75.85
54924;BME280;40825;52.270;20.984;2023-07-29T07:41:58;100039.38;;;24.47;77.19
54924;BME280;40825;52.270;20.984;2023-07-29T07:44:24;100036.08;;;24.44;68.10
54924;BME280;40825;52.270;20.984;2023-07-29T07:46:52;100034.40;;;24.43;70.54
54924;BME280;40825;52.270;20.984;2023-07-29T07:49:19;100034.10;;;24.82;71.11
54924;BME280;40825;52.270;20.984;2023-07-29T07:51:45;100037.73;;;25.05;70.59
54924;BME280;40825;52.270;20.984;2023-07-29T07:54:11;100042.45;;;25.15;70.00
54924;BME280;40825;52.270;20.984;2023-07-29T07:56:36;100046.77;;;25.13;68.47
54924;BME280;40825;52.270;20.984;2023-07-29T07:59:02;100048.48;;;25.10;61.99
54924;BME280;40825;52.270;20.984;2023-07-29T08:01:49;100046.95;;;25.16;62.99
54924;BME280;40825;52.270;20.984;2023-07-29T08:04:14;100044.69;;;25.11;64.77
54924;BME280;40825;52.270;20.984;2023-07-29T08:06:43;100043.16;;;24.78;64.44
54924;BME280;40825;52.270;20.984;2023-07-29T08:09:08;100045.34;;;24.45;64.47
54924;BME280;40825;52.270;20.984;2023-07-29T08:11:34;100048.44;;;24.16;63.96
54924;BME280;40825;52.270;20.984;2023-07-29T08:14:12;100042.50;;;24.06;66.07
54924;BME280;40825;52.270;20.984;2023-07-29T08:16:40;100039.98;;;23.86;65.60
54924;BME280;40825;52.270;20.984;2023-07-29T08:19:12;100040.34;;;23.82;67.03
54924;BME280;40825;52.270;20.984;2023-07-29T08:21:43;100039.75;;;23.87;62.99
54924;BME280;40825;52.270;20.984;2023-07-29T08:24:12;100033.48;;;23.77;62.82
54924;BME280;40825;52.270;20.984;2023-07-29T08:26:37;100035.27;;;23.82;65.80
54924;BME280;40825;52.270;20.984;2023-07-29T08:29:08;100037.11;;;23.69;64.89
54924;BME280;40825;52.270;20.984;2023-07-29T08:31:37;100032.20;;;23.64;64.89
54924;BME280;40825;52.270;20.984;2023-07-29T08:34:02;100033.06;;;24.40;63.90
54924;BME280;40825;52.270;20.984;2023-07-29T08:36:30;100029.95;;;25.14;60.52
54924;BME280;40825;52.270;20.984;2023-07-29T08:38:56;100029.65;;;25.28;57.97
54924;BME280;40825;52.270;20.984;2023-07-29T08:41:26;100025.29;;;25.91;56.96
54924;BME280;40825;52.270;20.984;2023-07-29T08:44:29;100027.40;;;26.64;57.20
54924;BME280;40825;52.270;20.984;2023-07-29T08:46:56;100028.67;;;27.19;52.76
54924;BME280;40825;52.270;20.984;2023-07-29T08:49:23;100027.55;;;27.43;53.66
54924;BME280;40825;52.270;20.984;2023-07-29T08:51:50;100030.13;;;27.54;50.67
54924;BME280;40825;52.270;20.984;2023-07-29T08:54:18;100033.61;;;27.88;52.96
54924;BME280;40825;52.270;20.984;2023-07-29T08:56:45;100033.00;;;28.32;50.95
54924;BME280;40825;52.270;20.984;2023-07-29T08:59:11;100031.84;;;28.63;50.60
54924;BME280;40825;52.270;20.984;2023-07-29T09:01:41;100031.55;;;28.87;48.49
54924;BME280;40825;52.270;20.984;2023-07-29T09:04:07;100028.98;;;29.14;48.02
54924;BME280;40825;52.270;20.984;2023-07-29T09:06:33;100027.64;;;29.60;49.27
54924;BME280;40825;52.270;20.984;2023-07-29T09:09:00;100024.38;;;29.31;45.82
54924;BME280;40825;52.270;20.984;2023-07-29T09:11:27;100025.02;;;28.97;47.52
54924;BME280;40825;52.270;20.984;2023-07-29T09:13:52;100028.33;;;28.88;48.63
54924;BME280;40825;52.270;20.984;2023-07-29T09:16:20;100031.19;;;29.01;47.74
54924;BME280;40825;52.270;20.984;2023-07-29T09:18:49;100026.85;;;29.41;46.47
54924;BME280;40825;52.270;20.984;2023-07-29T09:21:17;100022.43;;;29.77;44.80
54924;BME280;40825;52.270;20.984;2023-07-29T09:23:44;100023.11;;;30.16;44.76
54924;BME280;40825;52.270;20.984;2023-07-29T09:26:10;100023.85;;;30.56;45.67
54924;BME280;40825;52.270;20.984;2023-07-29T09:28:39;100021.50;;;30.93;46.38
54924;BME280;40825;52.270;20.984;2023-07-29T09:31:06;100020.49;;;31.10;45.77
54924;BME280;40825;52.270;20.984;2023-07-29T09:33:35;100018.04;;;31.18;46.29
54924;BME280;40825;52.270;20.984;2023-07-29T09:36:10;100021.63;;;31.06;43.63
54924;BME280;40825;52.270;20.984;2023-07-29T09:38:37;100018.60;;;30.57;44.44
54924;BME280;40825;52.270;20.984;2023-07-29T09:41:02;100017.23;;;29.79;43.77
54924;BME280;40825;52.270;20.984;2023-07-29T09:43:33;100019.64;;;29.45;45.21
54924;BME280;40825;52.270;20.984;2023-07-29T09:46:00;100014.05;;;29.68;44.11
54924;BME280;40825;52.270;20.984;2023-07-29T09:48:26;100008.45;;;30.09;45.47
54924;BME280;40825;52.270;20.984;2023-07-29T09:50:54;100014.39;;;29.76;44.36
54924;BME280;40825;52.270;20.984;2023-07-29T09:53:20;100019.08;;;29.17;43.73
54924;BME280;40825;52.270;20.984;2023-07-29T09:55:47;100010.20;;;28.97;42.04
54924;BME280;40825;52.270;20.984;2023-07-29T09:58:26;100006.48;;;28.57;43.37
54924;BME280;40825;52.270;20.984;2023-07-29T10:00:52;100006.92;;;28.41;42.59
54924;BME280;40825;52.270;20.984;2023-07-29T10:03:21;100008.55;;;28.42;42.81
54924;BME280;40825;52.270;20.984;2023-07-29T10:05:48;100008.08;;;28.58;43.44
54924;BME280;40825;52.270;20.984;2023-07-29T10:08:13;100003.27;;;28.84;43.84
54924;BME280;40825;52.270;20.984;2023-07-29T10:10:42;100000.15;;;28.84;41.89
54924;BME280;40825;52.270;20.984;2023-07-29T10:13:09;100000.50;;;28.50;41.46
54924;BME280;40825;52.270;20.984;2023-07-29T10:15:36;100000.70;;;28.66;42.48
54924;BME280;40825;52.270;20.984;2023-07-29T10:18:02;100001.94;;;29.04;43.00
54924;BME280;40825;52.270;20.984;2023-07-29T10:20:30;100006.84;;;29.16;41.67
54924;BME280;40825;52.270;20.984;2023-07-29T10:22:59;100002.97;;;29.32;42.17
54924;BME280;40825;52.270;20.984;2023-07-29T10:25:33;99999.30;;;29.28;39.67
54924;BME280;40825;52.270;20.984;2023-07-29T10:28:06;99996.58;;;28.84;39.97
54924;BME280;40825;52.270;20.984;2023-07-29T10:30:32;99998.00;;;28.42;41.02
54924;BME280;40825;52.270;20.984;2023-07-29T10:33:02;99997.27;;;28.12;42.66
54924;BME280;40825;52.270;20.984;2023-07-29T10:35:28;99994.46;;;27.99;43.02
54924;BME280;40825;52.270;20.984;2023-07-29T10:37:54;99993.47;;;27.86;42.43
54924;BME280;40825;52.270;20.984;2023-07-29T10:40:22;99994.34;;;27.64;42.77
54924;BME280;40825;52.270;20.984;2023-07-29T10:43:02;99994.66;;;27.45;43.53
54924;BME280;40825;52.270;20.984;2023-07-29T10:45:36;99992.95;;;27.25;43.98
54924;BME280;40825;52.270;20.984;2023-07-29T10:48:05;99992.35;;;27.15;44.59
54924;BME280;40825;52.270;20.984;2023-07-29T10:50:31;99986.52;;;27.08;44.55
54924;BME280;40825;52.270;20.984;2023-07-29T10:52:57;99982.73;;;26.97;44.56
54924;BME280;40825;52.270;20.984;2023-07-29T10:55:35;99984.92;;;26.78;43.98
54924;BME280;40825;52.270;20.984;2023-07-29T10:58:22;99981.77;;;26.70;44.51
54924;BME280;40825;52.270;20.984;2023-07-29T11:00:49;99981.13;;;26.70;44.87
54924;BME280;40825;52.270;20.984;2023-07-29T11:03:14;99978.34;;;26.67;45.18
54924;BME280;40825;52.270;20.984;2023-07-29T11:05:51;99977.95;;;26.67;44.70
54924;BME280;40825;52.270;20.984;2023-07-29T11:08:18;99977.73;;;26.58;44.70
54924;BME280;40825;52.270;20.984;2023-07-29T11:11:07;99979.74;;;26.52;45.34
54924;BME280;40825;52.270;20.984;2023-07-29T11:13:37;99978.83;;;26.46;44.44
54924;BME280;40825;52.270;20.984;2023-07-29T11:16:03;99977.02;;;26.39;44.80
54924;BME280;40825;52.270;20.984;2023-07-29T11:18:31;99972.64;;;26.39;45.61
54924;BME280;40825;52.270;20.984;2023-07-29T11:20:58;99967.04;;;26.45;45.87
54924;BME280;40825;52.270;20.984;2023-07-29T11:23:36;99960.27;;;26.40;45.02
54924;BME280;40825;52.270;20.984;2023-07-29T11:26:03;99956.17;;;26.33;45.48
54924;BME280;40825;52.270;20.984;2023-07-29T11:28:30;99952.33;;;26.31;45.53
54924;BME280;40825;52.270;20.984;2023-07-29T11:30:56;99944.66;;;26.27;45.79
54924;BME280;40825;52.270;20.984;2023-07-29T11:33:30;99940.23;;;26.22;46.18
54924;BME280;40825;52.270;20.984;2023-07-29T11:35:55;99939.70;;;26.21;46.22
54924;BME280;40825;52.270;20.984;2023-07-29T11:38:24;99932.83;;;26.14;46.17
54924;BME280;40825;52.270;20.984;2023-07-29T11:41:04;99929.55;;;26.04;46.43
54924;BME280;40825;52.270;20.984;2023-07-29T11:43:29;99929.02;;;26.01;46.85
54924;BME280;40825;52.270;20.984;2023-07-29T11:45:55;99924.06;;;26.02;47.29
54924;BME280;40825;52.270;20.984;2023-07-29T11:48:32;99921.09;;;26.02;47.08
54924;BME280;40825;52.270;20.984;2023-07-29T11:50:58;99920.36;;;26.09;47.33
54924;BME280;40825;52.270;20.984;2023-07-29T11:53:27;99916.77;;;26.13;47.43
54924;BME280;40825;52.270;20.984;2023-07-29T11:56:03;99916.61;;;26.15;47.45
54924;BME280;40825;52.270;20.984;2023-07-29T11:58:38;99913.29;;;26.17;48.12
54924;BME280;40825;52.270;20.984;2023-07-29T12:01:05;99908.83;;;26.08;47.57
54924;BME280;40825;52.270;20.984;2023-07-29T12:03:31;99910.33;;;26.02;47.32
54924;BME280;40825;52.270;20.984;2023-07-29T12:06:00;99908.17;;;25.93;47.41
54924;BME280;40825;52.270;20.984;2023-07-29T12:08:28;99903.16;;;25.87;47.72
54924;BME280;40825;52.270;20.984;2023-07-29T12:10:59;99898.05;;;25.88;48.68
54924;BME280;40825;52.270;20.984;2023-07-29T12:13:25;99893.09;;;25.93;48.15
54924;BME280;40825;52.270;20.984;2023-07-29T12:15:51;99898.23;;;25.92;47.92
54924;BME280;40825;52.270;20.984;2023-07-29T12:18:16;99896.88;;;25.92;48.01
54924;BME280;40825;52.270;20.984;2023-07-29T12:20:43;99899.77;;;25.89;47.78
54924;BME280;40825;52.270;20.984;2023-07-29T12:23:10;99896.21;;;25.87;47.18
54924;BME280;40825;52.270;20.984;2023-07-29T12:25:37;99894.30;;;25.82;47.08
54924;BME280;40825;52.270;20.984;2023-07-29T12:28:05;99885.95;;;25.79;47.81
54924;BME280;40825;52.270;20.984;2023-07-29T12:30:31;99880.63;;;25.77;48.08
54924;BME280;40825;52.270;20.984;2023-07-29T12:32:57;99882.68;;;25.73;47.82
54924;BME280;40825;52.270;20.984;2023-07-29T12:35:22;99880.64;;;25.76;48.16
54924;BME280;40825;52.270;20.984;2023-07-29T12:38:11;99879.60;;;25.79;47.44
54924;BME280;40825;52.270;20.984;2023-07-29T12:40:46;99878.14;;;25.85;47.94
54924;BME280;40825;52.270;20.984;2023-07-29T12:43:11;99876.41;;;25.95;48.34
54924;BME280;40825;52.270;20.984;2023-07-29T12:45:37;99876.22;;;25.99;47.53
54924;BME280;40825;52.270;20.984;2023-07-29T12:48:05;99877.30;;;25.97;47.32
54924;BME280;40825;52.270;20.984;2023-07-29T12:50:31;99877.70;;;25.99;47.49
54924;BME280;40825;52.270;20.984;2023-07-29T12:52:57;99877.30;;;25.94;47.56
54924;BME280;40825;52.270;20.984;2023-07-29T12:55:30;99876.20;;;25.90;47.53
54924;BME280;40825;52.270;20.984;2023-07-29T12:57:56;99872.17;;;25.78;47.63
54924;BME280;40825;52.270;20.984;2023-07-29T13:00:26;99871.06;;;25.72;47.91
54924;BME280;40825;52.270;20.984;2023-07-29T13:02:52;99870.41;;;25.66;47.91
54924;BME280;40825;52.270;20.984;2023-07-29T13:05:21;99869.83;;;25.60;48.00
54924;BME280;40825;52.270;20.984;2023-07-29T13:07:47;99864.87;;;25.51;48.28
54924;BME280;40825;52.270;20.984;2023-07-29T13:10:17;99865.10;;;25.49;48.44
54924;BME280;40825;52.270;20.984;2023-07-29T13:12:45;99862.05;;;25.44;48.46
54924;BME280;40825;52.270;20.984;2023-07-29T13:15:40;99857.38;;;25.40;48.91
54924;BME280;40825;52.270;20.984;2023-07-29T13:18:06;99858.95;;;25.40;48.93
54924;BME280;40825;52.270;20.984;2023-07-29T13:20:43;99855.38;;;25.43;48.93
54924;BME280;40825;52.270;20.984;2023-07-29T13:23:09;99854.10;;;25.48;49.51
54924;BME280;40825;52.270;20.984;2023-07-29T13:25:37;99854.34;;;25.57;49.35
54924;BME280;40825;52.270;20.984;2023-07-29T13:28:03;99849.14;;;25.64;49.33
54924;BME280;40825;52.270;20.984;2023-07-29T13:30:30;99841.23;;;25.71;49.28
54924;BME280;40825;52.270;20.984;2023-07-29T13:32:56;99837.80;;;25.73;48.69
54924;BME280;40825;52.270;20.984;2023-07-29T13:35:22;99838.42;;;25.74;48.97
54924;BME280;40825;52.270;20.984;2023-07-29T13:38:00;99835.29;;;25.83;49.34
54924;BME280;40825;52.270;20.984;2023-07-29T13:40:39;99831.02;;;25.95;49.36
54924;BME280;40825;52.270;20.984;2023-07-29T13:43:11;99828.30;;;26.09;49.52
54924;BME280;40825;52.270;20.984;2023-07-29T13:45:38;99824.42;;;26.17;49.28
54924;BME280;40825;52.270;20.984;2023-07-29T13:48:04;99823.17;;;26.27;49.32
54924;BME280;40825;52.270;20.984;2023-07-29T13:50:30;99822.34;;;26.34;49.34
54924;BME280;40825;52.270;20.984;2023-07-29T13:52:58;99819.45;;;26.34;49.04
54924;BME280;40825;52.270;20.984;2023-07-29T13:55:23;99818.14;;;26.31;49.08
54924;BME280;40825;52.270;20.984;2023-07-29T13:57:49;99817.90;;;26.32;49.25
54924;BME280;40825;52.270;20.984;2023-07-29T14:00:15;99813.45;;;26.31;47.75
54924;BME280;40825;52.270;20.984;2023-07-29T14:02:43;99812.67;;;26.31;48.18
54924;BME280;40825;52.270;20.984;2023-07-29T14:05:09;99812.93;;;26.32;47.94
54924;BME280;40825;52.270;20.984;2023-07-29T14:07:37;99812.16;;;26.30;47.88
54924;BME280;40825;52.270;20.984;2023-07-29T14:10:03;99803.59;;;26.25;47.89
54924;BME280;40825;52.270;20.984;2023-07-29T14:12:28;99800.66;;;26.18;47.87
54924;BME280;40825;52.270;20.984;2023-07-29T14:14:54;99799.92;;;26.16;47.69
54924;BME280;40825;52.270;20.984;2023-07-29T14:17:20;99797.20;;;26.14;47.46
54924;BME280;40825;52.270;20.984;2023-07-29T14:19:46;99795.13;;;26.12;48.08
54924;BME280;40825;52.270;20.984;2023-07-29T14:22:11;99788.93;;;26.12;48.45
54924;BME280;40825;52.270;20.984;2023-07-29T14:24:37;99785.02;;;26.09;48.44
54924;BME280;40825;52.270;20.984;2023-07-29T14:27:03;99784.48;;;26.06;48.66
54924;BME280;40825;52.270;20.984;2023-07-29T14:29:29;99783.33;;;26.03;48.80
54924;BME280;40825;52.270;20.984;2023-07-29T14:31:54;99784.90;;;26.02;48.83
54924;BME280;40825;52.270;20.984;2023-07-29T14:34:19;99781.58;;;25.97;48.40
54924;BME280;40825;52.270;20.984;2023-07-29T14:36:45;99780.79;;;25.93;48.64
54924;BME280;40825;52.270;20.984;2023-07-29T14:39:11;99778.56;;;25.95;48.67
54924;BME280;40825;52.270;20.984;2023-07-29T14:41:36;99776.28;;;25.94;48.29
54924;BME280;40825;52.270;20.984;2023-07-29T14:44:02;99773.56;;;25.93;48.07
54924;BME280;40825;52.270;20.984;2023-07-29T14:46:28;99771.58;;;25.94;48.03
54924;BME280;40825;52.270;20.984;2023-07-29T14:48:53;99771.96;;;25.94;47.98
54924;BME280;40825;52.270;20.984;2023-07-29T14:51:19;99773.65;;;25.92;47.88
54924;BME280;40825;52.270;20.984;2023-07-29T14:53:45;99774.39;;;25.91;48.20
54924;BME280;40825;52.270;20.984;2023-07-29T14:59:29;99774.86;;;25.88;48.20
54924;BME280;40825;52.270;20.984;2023-07-29T15:02:18;99770.71;;;25.87;47.91
54924;BME280;40825;52.270;20.984;2023-07-29T15:04:43;99771.73;;;25.85;48.29
54924;BME280;40825;52.270;20.984;2023-07-29T15:07:09;99774.15;;;25.85;48.46
54924;BME280;40825;52.270;20.984;2023-07-29T15:09:34;99768.61;;;25.80;48.37
54924;BME280;40825;52.270;20.984;2023-07-29T15:12:08;99763.47;;;25.76;48.64
54924;BME280;40825;52.270;20.984;2023-07-29T15:14:34;99763.16;;;25.71;48.79
54924;BME280;40825;52.270;20.984;2023-07-29T15:16:59;99761.64;;;25.70;49.26
54924;BME280;40825;52.270;20.984;2023-07-29T15:19:25;99757.73;;;25.68;49.14
54924;BME280;40825;52.270;20.984;2023-07-29T15:21:51;99755.55;;;25.68;48.92
54924;BME280;40825;52.270;20.984;2023-07-29T15:24:16;99748.45;;;25.71;48.83
54924;BME280;40825;52.270;20.984;2023-07-29T15:26:42;99743.98;;;25.72;48.87
54924;BME280;40825;52.270;20.984;2023-07-29T15:33:09;99739.58;;;25.72;49.37
54924;BME280;40825;52.270;20.984;2023-07-29T15:35:38;99743.38;;;25.73;49.13
54924;BME280;40825;52.270;20.984;2023-07-29T15:38:07;99749.67;;;25.72;49.13
54924;BME280;40825;52.270;20.984;2023-07-29T15:40:33;99747.56;;;25.74;49.33
54924;BME280;40825;52.270;20.984;2023-07-29T15:42:58;99748.84;;;25.75;49.69
54924;BME280;40825;52.270;20.984;2023-07-29T15:45:27;99746.80;;;25.77;49.70
54924;BME280;40825;52.270;20.984;2023-07-29T15:47:59;99742.18;;;25.79;49.76
54924;BME280;40825;52.270;20.984;2023-07-29T15:50:25;99741.45;;;25.83;49.91
54924;BME280;40825;52.270;20.984;2023-07-29T15:52:51;99743.74;;;25.85;49.77
54924;BME280;40825;52.270;20.984;2023-07-29T15:55:28;99739.42;;;25.87;50.26
54924;BME280;40825;52.270;20.984;2023-07-29T15:57:57;99738.26;;;25.86;50.34
54924;BME280;40825;52.270;20.984;2023-07-29T16:00:22;99737.61;;;25.80;50.28
54924;BME280;40825;52.270;20.984;2023-07-29T16:02:49;99738.79;;;25.75;50.32
54924;BME280;40825;52.270;20.984;2023-07-29T16:05:24;99734.52;;;25.71;50.72
54924;BME280;40825;52.270;20.984;2023-07-29T16:07:50;99735.46;;;25.67;50.88
54924;BME280;40825;52.270;20.984;2023-07-29T16:10:25;99730.80;;;25.64;51.03